sensor_id;sensor_type;location;lat;lon;timestamp;P1;durP1;ratioP1;P2;durP2;ratioP2
18100;SDS011;9177;49.156;8.142;2023-04-12T00:00:07;4.73;;;4.10;;
18100;SDS011;9177;49.156;8.142;2023-04-12T00:02:38;5.20;;;4.00;;
18100;SDS011;9177;49.156;8.142;2023-04-12T00:05:06;4.80;;;4.13;;
18100;SDS011;9177;49.156;8.142;2023-04-12T00:07:36;6.07;;;4.33;;
18100;SDS011;9177;49.156;8.142;2023-04-12T00:10:04;5.60;;;3.30;;
18100;SDS011;9177;49.156;8.142;2023-04-12T00:12:32;4.63;;;3.50;;
18100;SDS011;9177;49.156;8.142;2023-04-12T00:14:59;4.77;;;3.93;;
18100;SDS011;9177;49.156;8.142;2023-04-12T00:17:26;5.07;;;4.07;;
18100;SDS011;9177;49.156;8.142;2023-04-12T00:19:53;4.73;;;3.83;;
18100;SDS011;9177;49.156;8.142;2023-04-12T00:22:20;5.03;;;3.83;;
18100;SDS011;9177;49.156;8.142;2023-04-12T00:24:48;3.97;;;3.40;;
18100;SDS011;9177;49.156;8.142;2023-04-12T00:27:17;4.00;;;3.60;;
18100;SDS011;9177;49.156;8.142;2023-04-12T00:29:44;4.73;;;3.50;;
18100;SDS011;9177;49.156;8.142;2023-04-12T00:32:11;3.83;;;3.43;;
18100;SDS011;9177;49.156;8.142;2023-04-12T00:34:38;4.77;;;3.30;;
18100;SDS011;9177;49.156;8.142;2023-04-12T00:37:04;5.17;;;3.37;;
18100;SDS011;9177;49.156;8.142;2023-04-12T00:39:31;4.23;;;2.87;;
18100;SDS011;9177;49.156;8.142;2023-04-12T00:42:01;5.53;;;3.20;;
18100;SDS011;9177;49.156;8.142;2023-04-12T00:44:29;3.63;;;3.20;;
18100;SDS011;9177;49.156;8.142;2023-04-12T00:46:56;4.00;;;3.10;;
18100;SDS011;9177;49.156;8.142;2023-04-12T00:49:24;3.87;;;2.87;;
18100;SDS011;9177;49.156;8.142;2023-04-12T00:51:55;4.47;;;2.97;;
18100;SDS011;9177;49.156;8.142;2023-04-12T00:54:24;3.70;;;2.93;;
18100;SDS011;9177;49.156;8.142;2023-04-12T00:56:50;3.90;;;3.27;;
18100;SDS011;9177;49.156;8.142;2023-04-12T00:59:19;3.20;;;2.90;;
18100;SDS011;9177;49.156;8.142;2023-04-12T01:01:46;3.60;;;3.00;;
18100;SDS011;9177;49.156;8.142;2023-04-12T01:04:13;3.63;;;2.70;;
18100;SDS011;9177;49.156;8.142;2023-04-12T01:06:43;3.63;;;2.80;;
18100;SDS011;9177;49.156;8.142;2023-04-12T01:09:26;3.80;;;2.90;;
18100;SDS011;9177;49.156;8.142;2023-04-12T01:12:01;2.87;;;2.57;;
18100;SDS011;9177;49.156;8.142;2023-04-12T01:14:40;3.33;;;2.70;;
18100;SDS011;9177;49.156;8.142;2023-04-12T01:17:12;3.47;;;2.87;;
18100;SDS011;9177;49.156;8.142;2023-04-12T01:19:51;2.93;;;2.50;;
18100;SDS011;9177;49.156;8.142;2023-04-12T01:22:28;4.27;;;2.50;;
18100;SDS011;9177;49.156;8.142;2023-04-12T01:25:17;2.80;;;2.50;;
18100;SDS011;9177;49.156;8.142;2023-04-12T01:27:56;3.47;;;2.67;;
18100;SDS011;9177;49.156;8.142;2023-04-12T01:30:27;3.57;;;2.70;;
18100;SDS011;9177;49.156;8.142;2023-04-12T01:32:55;3.90;;;2.50;;
18100;SDS011;9177;49.156;8.142;2023-04-12T01:35:25;3.00;;;2.40;;
18100;SDS011;9177;49.156;8.142;2023-04-12T01:37:56;4.33;;;2.83;;
18100;SDS011;9177;49.156;8.142;2023-04-12T01:40:23;3.17;;;2.37;;
18100;SDS011;9177;49.156;8.142;2023-04-12T01:42:51;4.07;;;2.37;;
18100;SDS011;9177;49.156;8.142;2023-04-12T01:45:31;3.27;;;2.43;;
18100;SDS011;9177;49.156;8.142;2023-04-12T01:47:58;3.40;;;2.70;;
18100;SDS011;9177;49.156;8.142;2023-04-12T01:50:26;3.37;;;2.10;;
18100;SDS011;9177;49.156;8.142;2023-04-12T01:53:05;2.73;;;2.20;;
18100;SDS011;9177;49.156;8.142;2023-04-12T01:55:38;2.70;;;2.33;;
18100;SDS011;9177;49.156;8.142;2023-04-12T01:58:07;2.60;;;2.20;;
18100;SDS011;9177;49.156;8.142;2023-04-12T02:00:37;3.50;;;2.00;;
18100;SDS011;9177;49.156;8.142;2023-04-12T02:03:07;2.70;;;2.20;;
18100;SDS011;9177;49.156;8.142;2023-04-12T02:05:36;3.57;;;2.20;;
18100;SDS011;9177;49.156;8.142;2023-04-12T02:08:04;3.80;;;2.03;;
18100;SDS011;9177;49.156;8.142;2023-04-12T02:10:31;3.23;;;2.13;;
18100;SDS011;9177;49.156;8.142;2023-04-12T02:13:00;3.13;;;2.13;;
18100;SDS011;9177;49.156;8.142;2023-04-12T02:15:29;3.33;;;2.30;;
18100;SDS011;9177;49.156;8.142;2023-04-12T02:17:56;2.67;;;2.00;;
18100;SDS011;9177;49.156;8.142;2023-04-12T02:20:25;2.20;;;1.97;;
18100;SDS011;9177;49.156;8.142;2023-04-12T02:22:52;2.27;;;1.90;;
18100;SDS011;9177;49.156;8.142;2023-04-12T02:25:19;2.40;;;1.90;;
18100;SDS011;9177;49.156;8.142;2023-04-12T02:27:46;2.83;;;1.87;;
18100;SDS011;9177;49.156;8.142;2023-04-12T02:30:13;2.13;;;1.90;;
18100;SDS011;9177;49.156;8.142;2023-04-12T02:32:42;2.57;;;2.10;;
18100;SDS011;9177;49.156;8.142;2023-04-12T02:35:09;3.00;;;2.03;;
18100;SDS011;9177;49.156;8.142;2023-04-12T02:37:36;3.60;;;1.97;;
18100;SDS011;9177;49.156;8.142;2023-04-12T02:40:04;3.70;;;1.80;;
18100;SDS011;9177;49.156;8.142;2023-04-12T02:42:34;2.97;;;1.80;;
18100;SDS011;9177;49.156;8.142;2023-04-12T02:45:01;2.87;;;1.80;;
18100;SDS011;9177;49.156;8.142;2023-04-12T02:47:28;2.23;;;1.80;;
18100;SDS011;9177;49.156;8.142;2023-04-12T02:49:59;2.67;;;2.27;;
18100;SDS011;9177;49.156;8.142;2023-04-12T02:52:27;2.17;;;1.73;;
18100;SDS011;9177;49.156;8.142;2023-04-12T02:54:54;1.90;;;1.63;;
18100;SDS011;9177;49.156;8.142;2023-04-12T02:57:22;2.10;;;1.70;;
18100;SDS011;9177;49.156;8.142;2023-04-12T02:59:49;2.37;;;1.83;;
18100;SDS011;9177;49.156;8.142;2023-04-12T03:02:18;2.10;;;1.90;;
18100;SDS011;9177;49.156;8.142;2023-04-12T03:04:45;1.80;;;1.43;;
18100;SDS011;9177;49.156;8.142;2023-04-12T03:07:16;1.80;;;1.47;;
18100;SDS011;9177;49.156;8.142;2023-04-12T03:09:44;1.70;;;1.60;;
18100;SDS011;9177;49.156;8.142;2023-04-12T03:12:11;2.20;;;1.60;;
18100;SDS011;9177;49.156;8.142;2023-04-12T03:14:39;2.77;;;1.90;;
18100;SDS011;9177;49.156;8.142;2023-04-12T03:17:05;2.07;;;1.30;;
18100;SDS011;9177;49.156;8.142;2023-04-12T03:19:32;1.77;;;1.63;;
18100;SDS011;9177;49.156;8.142;2023-04-12T03:22:00;3.27;;;1.73;;
18100;SDS011;9177;49.156;8.142;2023-04-12T03:24:29;1.77;;;1.60;;
18100;SDS011;9177;49.156;8.142;2023-04-12T03:26:58;1.87;;;1.60;;
18100;SDS011;9177;49.156;8.142;2023-04-12T03:29:26;1.53;;;1.40;;
18100;SDS011;9177;49.156;8.142;2023-04-12T03:31:52;2.03;;;1.47;;
18100;SDS011;9177;49.156;8.142;2023-04-12T03:34:21;2.40;;;1.50;;
18100;SDS011;9177;49.156;8.142;2023-04-12T03:36:48;2.30;;;1.30;;
18100;SDS011;9177;49.156;8.142;2023-04-12T03:39:15;1.90;;;1.37;;
18100;SDS011;9177;49.156;8.142;2023-04-12T03:41:44;1.77;;;1.40;;
18100;SDS011;9177;49.156;8.142;2023-04-12T03:44:11;1.40;;;1.30;;
18100;SDS011;9177;49.156;8.142;2023-04-12T03:46:38;1.97;;;1.50;;
18100;SDS011;9177;49.156;8.142;2023-04-12T03:49:05;1.57;;;1.30;;
18100;SDS011;9177;49.156;8.142;2023-04-12T03:51:32;2.10;;;1.30;;
18100;SDS011;9177;49.156;8.142;2023-04-12T03:53:59;1.63;;;1.40;;
18100;SDS011;9177;49.156;8.142;2023-04-12T03:56:27;2.03;;;1.50;;
18100;SDS011;9177;49.156;8.142;2023-04-12T03:58:55;1.77;;;1.60;;
18100;SDS011;9177;49.156;8.142;2023-04-12T04:01:22;2.30;;;1.37;;
18100;SDS011;9177;49.156;8.142;2023-04-12T04:03:48;1.67;;;1.17;;
18100;SDS011;9177;49.156;8.142;2023-04-12T04:06:15;1.77;;;1.10;;
18100;SDS011;9177;49.156;8.142;2023-04-12T04:08:42;1.33;;;1.23;;
18100;SDS011;9177;49.156;8.142;2023-04-12T04:11:10;2.30;;;1.50;;
18100;SDS011;9177;49.156;8.142;2023-04-12T04:13:38;1.40;;;1.23;;
18100;SDS011;9177;49.156;8.142;2023-04-12T04:16:07;1.10;;;1.00;;
18100;SDS011;9177;49.156;8.142;2023-04-12T04:18:35;1.90;;;1.50;;
18100;SDS011;9177;49.156;8.142;2023-04-12T04:21:02;2.93;;;1.67;;
18100;SDS011;9177;49.156;8.142;2023-04-12T04:23:29;1.70;;;1.57;;
18100;SDS011;9177;49.156;8.142;2023-04-12T04:26:03;1.90;;;1.27;;
18100;SDS011;9177;49.156;8.142;2023-04-12T04:28:30;1.67;;;1.10;;
18100;SDS011;9177;49.156;8.142;2023-04-12T04:30:59;1.37;;;1.27;;
18100;SDS011;9177;49.156;8.142;2023-04-12T04:33:31;1.80;;;1.30;;
18100;SDS011;9177;49.156;8.142;2023-04-12T04:35:57;1.30;;;1.10;;
18100;SDS011;9177;49.156;8.142;2023-04-12T04:38:24;1.67;;;1.30;;
18100;SDS011;9177;49.156;8.142;2023-04-12T04:40:52;1.03;;;0.93;;
18100;SDS011;9177;49.156;8.142;2023-04-12T04:43:19;1.80;;;1.30;;
18100;SDS011;9177;49.156;8.142;2023-04-12T04:45:46;1.20;;;1.10;;
18100;SDS011;9177;49.156;8.142;2023-04-12T04:48:13;1.40;;;1.30;;
18100;SDS011;9177;49.156;8.142;2023-04-12T04:50:44;1.20;;;1.00;;
18100;SDS011;9177;49.156;8.142;2023-04-12T04:53:11;1.83;;;1.13;;
18100;SDS011;9177;49.156;8.142;2023-04-12T04:55:38;1.60;;;1.20;;
18100;SDS011;9177;49.156;8.142;2023-04-12T04:58:05;1.37;;;1.00;;
18100;SDS011;9177;49.156;8.142;2023-04-12T05:00:32;1.07;;;0.83;;
18100;SDS011;9177;49.156;8.142;2023-04-12T05:03:00;1.67;;;1.10;;
18100;SDS011;9177;49.156;8.142;2023-04-12T05:05:27;1.70;;;1.13;;
18100;SDS011;9177;49.156;8.142;2023-04-12T05:07:55;1.77;;;1.20;;
18100;SDS011;9177;49.156;8.142;2023-04-12T05:10:22;1.20;;;1.00;;
18100;SDS011;9177;49.156;8.142;2023-04-12T05:12:49;1.30;;;1.20;;
18100;SDS011;9177;49.156;8.142;2023-04-12T05:15:17;1.17;;;1.00;;
18100;SDS011;9177;49.156;8.142;2023-04-12T05:17:44;1.67;;;1.20;;
18100;SDS011;9177;49.156;8.142;2023-04-12T05:20:11;1.57;;;1.00;;
18100;SDS011;9177;49.156;8.142;2023-04-12T05:22:38;1.90;;;1.23;;
18100;SDS011;9177;49.156;8.142;2023-04-12T05:25:07;1.10;;;0.80;;
18100;SDS011;9177;49.156;8.142;2023-04-12T05:27:34;1.50;;;1.20;;
18100;SDS011;9177;49.156;8.142;2023-04-12T05:30:01;1.70;;;1.10;;
18100;SDS011;9177;49.156;8.142;2023-04-12T05:32:28;1.17;;;1.00;;
18100;SDS011;9177;49.156;8.142;2023-04-12T05:34:55;1.13;;;0.90;;
18100;SDS011;9177;49.156;8.142;2023-04-12T05:37:22;1.23;;;1.07;;
18100;SDS011;9177;49.156;8.142;2023-04-12T05:39:50;1.43;;;1.07;;
18100;SDS011;9177;49.156;8.142;2023-04-12T05:42:18;1.37;;;1.13;;
18100;SDS011;9177;49.156;8.142;2023-04-12T05:44:45;1.40;;;0.97;;
18100;SDS011;9177;49.156;8.142;2023-04-12T05:47:12;2.03;;;0.97;;
18100;SDS011;9177;49.156;8.142;2023-04-12T05:49:39;1.40;;;0.80;;
18100;SDS011;9177;49.156;8.142;2023-04-12T05:52:06;1.23;;;0.90;;
18100;SDS011;9177;49.156;8.142;2023-04-12T05:54:33;1.53;;;0.90;;
18100;SDS011;9177;49.156;8.142;2023-04-12T05:56:59;1.00;;;0.90;;
18100;SDS011;9177;49.156;8.142;2023-04-12T05:59:27;0.97;;;0.83;;
18100;SDS011;9177;49.156;8.142;2023-04-12T06:01:54;1.23;;;1.13;;
18100;SDS011;9177;49.156;8.142;2023-04-12T06:04:21;1.20;;;1.10;;
18100;SDS011;9177;49.156;8.142;2023-04-12T06:06:50;1.00;;;0.90;;
18100;SDS011;9177;49.156;8.142;2023-04-12T06:09:24;1.00;;;0.80;;
18100;SDS011;9177;49.156;8.142;2023-04-12T06:11:51;2.03;;;1.07;;
18100;SDS011;9177;49.156;8.142;2023-04-12T06:14:18;1.40;;;1.00;;
18100;SDS011;9177;49.156;8.142;2023-04-12T06:16:46;1.20;;;1.10;;
18100;SDS011;9177;49.156;8.142;2023-04-12T06:19:13;1.33;;;0.90;;
18100;SDS011;9177;49.156;8.142;2023-04-12T06:21:40;1.20;;;1.00;;
18100;SDS011;9177;49.156;8.142;2023-04-12T06:24:07;1.60;;;0.90;;
18100;SDS011;9177;49.156;8.142;2023-04-12T06:26:33;1.17;;;1.00;;
18100;SDS011;9177;49.156;8.142;2023-04-12T06:29:00;1.30;;;0.80;;
18100;SDS011;9177;49.156;8.142;2023-04-12T06:31:27;1.23;;;0.93;;
18100;SDS011;9177;49.156;8.142;2023-04-12T06:33:56;1.23;;;0.90;;
18100;SDS011;9177;49.156;8.142;2023-04-12T06:36:22;0.80;;;0.80;;
18100;SDS011;9177;49.156;8.142;2023-04-12T06:38:49;0.97;;;0.80;;
18100;SDS011;9177;49.156;8.142;2023-04-12T06:41:16;1.20;;;0.93;;
18100;SDS011;9177;49.156;8.142;2023-04-12T06:43:43;1.37;;;0.73;;
18100;SDS011;9177;49.156;8.142;2023-04-12T06:46:10;1.13;;;0.90;;
18100;SDS011;9177;49.156;8.142;2023-04-12T06:48:39;0.87;;;0.67;;
18100;SDS011;9177;49.156;8.142;2023-04-12T06:51:09;1.23;;;1.00;;
18100;SDS011;9177;49.156;8.142;2023-04-12T06:53:36;1.00;;;0.90;;
18100;SDS011;9177;49.156;8.142;2023-04-12T06:56:03;0.90;;;0.80;;
18100;SDS011;9177;49.156;8.142;2023-04-12T06:58:30;1.17;;;0.80;;
18100;SDS011;9177;49.156;8.142;2023-04-12T07:01:03;1.33;;;0.80;;
18100;SDS011;9177;49.156;8.142;2023-04-12T07:03:30;0.70;;;0.70;;
18100;SDS011;9177;49.156;8.142;2023-04-12T07:05:58;0.50;;;0.50;;
18100;SDS011;9177;49.156;8.142;2023-04-12T07:08:27;1.00;;;0.80;;
18100;SDS011;9177;49.156;8.142;2023-04-12T07:10:54;1.23;;;0.90;;
18100;SDS011;9177;49.156;8.142;2023-04-12T07:13:21;0.87;;;0.80;;
18100;SDS011;9177;49.156;8.142;2023-04-12T07:15:48;1.30;;;0.80;;
18100;SDS011;9177;49.156;8.142;2023-04-12T07:18:15;1.00;;;0.70;;
18100;SDS011;9177;49.156;8.142;2023-04-12T07:20:42;1.43;;;0.80;;
18100;SDS011;9177;49.156;8.142;2023-04-12T07:23:11;1.17;;;0.90;;
18100;SDS011;9177;49.156;8.142;2023-04-12T07:25:39;2.03;;;1.20;;
18100;SDS011;9177;49.156;8.142;2023-04-12T07:28:07;0.87;;;0.67;;
18100;SDS011;9177;49.156;8.142;2023-04-12T07:30:34;1.73;;;0.80;;
18100;SDS011;9177;49.156;8.142;2023-04-12T07:33:00;0.90;;;0.70;;
18100;SDS011;9177;49.156;8.142;2023-04-12T07:35:29;0.73;;;0.60;;
18100;SDS011;9177;49.156;8.142;2023-04-12T07:37:56;0.90;;;0.80;;
18100;SDS011;9177;49.156;8.142;2023-04-12T07:40:23;1.00;;;0.80;;
18100;SDS011;9177;49.156;8.142;2023-04-12T07:42:53;1.00;;;0.90;;
18100;SDS011;9177;49.156;8.142;2023-04-12T07:45:20;0.90;;;0.80;;
18100;SDS011;9177;49.156;8.142;2023-04-12T07:47:46;0.80;;;0.77;;
18100;SDS011;9177;49.156;8.142;2023-04-12T07:50:14;0.50;;;0.50;;
18100;SDS011;9177;49.156;8.142;2023-04-12T07:52:40;0.87;;;0.70;;
18100;SDS011;9177;49.156;8.142;2023-04-12T07:55:07;1.77;;;0.90;;
18100;SDS011;9177;49.156;8.142;2023-04-12T07:57:34;1.00;;;0.70;;
18100;SDS011;9177;49.156;8.142;2023-04-12T08:00:03;0.87;;;0.77;;
18100;SDS011;9177;49.156;8.142;2023-04-12T08:02:31;0.73;;;0.60;;
18100;SDS011;9177;49.156;8.142;2023-04-12T08:04:57;1.30;;;0.80;;
18100;SDS011;9177;49.156;8.142;2023-04-12T08:07:24;1.07;;;0.73;;
18100;SDS011;9177;49.156;8.142;2023-04-12T08:09:52;0.60;;;0.60;;
18100;SDS011;9177;49.156;8.142;2023-04-12T08:12:19;0.83;;;0.70;;
18100;SDS011;9177;49.156;8.142;2023-04-12T08:14:46;0.60;;;0.53;;
18100;SDS011;9177;49.156;8.142;2023-04-12T08:17:14;0.97;;;0.83;;
18100;SDS011;9177;49.156;8.142;2023-04-12T08:19:41;1.27;;;0.87;;
18100;SDS011;9177;49.156;8.142;2023-04-12T08:22:08;1.33;;;0.70;;
18100;SDS011;9177;49.156;8.142;2023-04-12T08:24:35;0.80;;;0.80;;
18100;SDS011;9177;49.156;8.142;2023-04-12T08:27:02;0.93;;;0.87;;
18100;SDS011;9177;49.156;8.142;2023-04-12T08:29:29;0.77;;;0.70;;
18100;SDS011;9177;49.156;8.142;2023-04-12T08:31:56;0.80;;;0.80;;
18100;SDS011;9177;49.156;8.142;2023-04-12T08:34:26;1.53;;;0.87;;
18100;SDS011;9177;49.156;8.142;2023-04-12T08:36:53;0.90;;;0.70;;
18100;SDS011;9177;49.156;8.142;2023-04-12T08:39:23;0.67;;;0.60;;
18100;SDS011;9177;49.156;8.142;2023-04-12T08:41:50;0.80;;;0.70;;
18100;SDS011;9177;49.156;8.142;2023-04-12T08:44:21;2.00;;;0.90;;
18100;SDS011;9177;49.156;8.142;2023-04-12T08:46:58;1.20;;;0.80;;
18100;SDS011;9177;49.156;8.142;2023-04-12T08:49:28;3.27;;;0.93;;
18100;SDS011;9177;49.156;8.142;2023-04-12T08:51:56;0.80;;;0.70;;
18100;SDS011;9177;49.156;8.142;2023-04-12T08:54:26;1.80;;;0.70;;
18100;SDS011;9177;49.156;8.142;2023-04-12T08:56:54;1.13;;;0.90;;
18100;SDS011;9177;49.156;8.142;2023-04-12T08:59:23;1.00;;;0.70;;
18100;SDS011;9177;49.156;8.142;2023-04-12T09:01:52;1.00;;;0.70;;
18100;SDS011;9177;49.156;8.142;2023-04-12T09:04:19;0.80;;;0.70;;
18100;SDS011;9177;49.156;8.142;2023-04-12T09:06:48;1.07;;;0.70;;
18100;SDS011;9177;49.156;8.142;2023-04-12T09:09:14;1.00;;;0.70;;
18100;SDS011;9177;49.156;8.142;2023-04-12T09:11:42;1.30;;;0.80;;
18100;SDS011;9177;49.156;8.142;2023-04-12T09:14:21;0.83;;;0.60;;
18100;SDS011;9177;49.156;8.142;2023-04-12T09:16:50;1.37;;;0.70;;
18100;SDS011;9177;49.156;8.142;2023-04-12T09:19:29;1.53;;;0.90;;
18100;SDS011;9177;49.156;8.142;2023-04-12T09:21:59;1.30;;;0.70;;
18100;SDS011;9177;49.156;8.142;2023-04-12T09:24:26;1.40;;;0.90;;
18100;SDS011;9177;49.156;8.142;2023-04-12T09:26:59;0.80;;;0.60;;
18100;SDS011;9177;49.156;8.142;2023-04-12T09:29:28;1.47;;;0.80;;
18100;SDS011;9177;49.156;8.142;2023-04-12T09:31:55;0.93;;;0.70;;
18100;SDS011;9177;49.156;8.142;2023-04-12T09:34:26;1.73;;;1.00;;
18100;SDS011;9177;49.156;8.142;2023-04-12T09:36:53;2.13;;;0.80;;
18100;SDS011;9177;49.156;8.142;2023-04-12T09:39:30;1.90;;;1.00;;
18100;SDS011;9177;49.156;8.142;2023-04-12T09:42:04;0.80;;;0.70;;
18100;SDS011;9177;49.156;8.142;2023-04-12T09:44:32;1.70;;;0.80;;
18100;SDS011;9177;49.156;8.142;2023-04-12T09:46:59;1.10;;;0.80;;
18100;SDS011;9177;49.156;8.142;2023-04-12T09:49:34;1.10;;;0.83;;
18100;SDS011;9177;49.156;8.142;2023-04-12T09:52:05;2.00;;;0.97;;
18100;SDS011;9177;49.156;8.142;2023-04-12T09:54:36;1.13;;;0.90;;
18100;SDS011;9177;49.156;8.142;2023-04-12T09:57:05;1.70;;;0.70;;
18100;SDS011;9177;49.156;8.142;2023-04-12T09:59:33;1.10;;;0.67;;
18100;SDS011;9177;49.156;8.142;2023-04-12T10:02:03;1.73;;;0.97;;
18100;SDS011;9177;49.156;8.142;2023-04-12T10:04:34;0.93;;;0.80;;
18100;SDS011;9177;49.156;8.142;2023-04-12T10:07:04;1.83;;;0.70;;
18100;SDS011;9177;49.156;8.142;2023-04-12T10:09:31;0.90;;;0.80;;
18100;SDS011;9177;49.156;8.142;2023-04-12T10:12:00;1.77;;;0.90;;
18100;SDS011;9177;49.156;8.142;2023-04-12T10:14:28;1.50;;;1.00;;
18100;SDS011;9177;49.156;8.142;2023-04-12T10:16:56;1.00;;;0.90;;
18100;SDS011;9177;49.156;8.142;2023-04-12T10:19:25;1.00;;;0.80;;
18100;SDS011;9177;49.156;8.142;2023-04-12T10:21:53;2.53;;;0.90;;
18100;SDS011;9177;49.156;8.142;2023-04-12T10:24:21;1.00;;;0.90;;
18100;SDS011;9177;49.156;8.142;2023-04-12T10:26:49;2.07;;;1.20;;
18100;SDS011;9177;49.156;8.142;2023-04-12T10:29:26;1.47;;;0.87;;
18100;SDS011;9177;49.156;8.142;2023-04-12T10:31:55;2.73;;;0.87;;
18100;SDS011;9177;49.156;8.142;2023-04-12T10:34:25;1.97;;;0.93;;
18100;SDS011;9177;49.156;8.142;2023-04-12T10:36:53;2.60;;;1.20;;
18100;SDS011;9177;49.156;8.142;2023-04-12T10:39:34;0.70;;;0.70;;
18100;SDS011;9177;49.156;8.142;2023-04-12T10:42:16;1.23;;;0.90;;
18100;SDS011;9177;49.156;8.142;2023-04-12T10:44:46;1.80;;;0.90;;
18100;SDS011;9177;49.156;8.142;2023-04-12T10:47:14;2.13;;;1.20;;
18100;SDS011;9177;49.156;8.142;2023-04-12T10:52:38;1.83;;;1.20;;
18100;SDS011;9177;49.156;8.142;2023-04-12T10:57:54;1.70;;;0.80;;
18100;SDS011;9177;49.156;8.142;2023-04-12T11:00:22;1.60;;;0.90;;
18100;SDS011;9177;49.156;8.142;2023-04-12T11:03:05;1.10;;;0.87;;
18100;SDS011;9177;49.156;8.142;2023-04-12T11:08:25;2.07;;;1.23;;
18100;SDS011;9177;49.156;8.142;2023-04-12T11:10:58;1.10;;;0.97;;
18100;SDS011;9177;49.156;8.142;2023-04-12T11:13:27;1.90;;;0.90;;
18100;SDS011;9177;49.156;8.142;2023-04-12T11:15:56;1.03;;;0.90;;
18100;SDS011;9177;49.156;8.142;2023-04-12T11:18:27;1.80;;;0.93;;
18100;SDS011;9177;49.156;8.142;2023-04-12T11:20:55;1.47;;;1.00;;
18100;SDS011;9177;49.156;8.142;2023-04-12T11:23:23;1.10;;;0.80;;
18100;SDS011;9177;49.156;8.142;2023-04-12T11:25:51;1.13;;;1.00;;
18100;SDS011;9177;49.156;8.142;2023-04-12T11:28:18;1.97;;;1.10;;
18100;SDS011;9177;49.156;8.142;2023-04-12T11:30:47;1.63;;;0.93;;
18100;SDS011;9177;49.156;8.142;2023-04-12T11:33:35;1.43;;;0.90;;
18100;SDS011;9177;49.156;8.142;2023-04-12T11:36:03;1.50;;;1.00;;
18100;SDS011;9177;49.156;8.142;2023-04-12T11:38:31;1.30;;;1.00;;
18100;SDS011;9177;49.156;8.142;2023-04-12T11:40:59;1.03;;;0.87;;
18100;SDS011;9177;49.156;8.142;2023-04-12T11:43:26;1.60;;;0.93;;
18100;SDS011;9177;49.156;8.142;2023-04-12T11:45:54;1.73;;;1.10;;
18100;SDS011;9177;49.156;8.142;2023-04-12T11:48:23;2.47;;;1.20;;
18100;SDS011;9177;49.156;8.142;2023-04-12T11:50:52;1.23;;;0.73;;
18100;SDS011;9177;49.156;8.142;2023-04-12T11:53:25;2.67;;;1.00;;
18100;SDS011;9177;49.156;8.142;2023-04-12T11:55:53;1.53;;;1.07;;
18100;SDS011;9177;49.156;8.142;2023-04-12T11:58:22;1.50;;;1.00;;
18100;SDS011;9177;49.156;8.142;2023-04-12T12:00:51;1.00;;;0.87;;
18100;SDS011;9177;49.156;8.142;2023-04-12T12:03:18;1.93;;;0.90;;
18100;SDS011;9177;49.156;8.142;2023-04-12T12:05:46;2.03;;;0.93;;
18100;SDS011;9177;49.156;8.142;2023-04-12T12:08:14;2.07;;;1.10;;
18100;SDS011;9177;49.156;8.142;2023-04-12T12:10:41;1.60;;;0.80;;
18100;SDS011;9177;49.156;8.142;2023-04-12T12:13:09;1.57;;;1.00;;
18100;SDS011;9177;49.156;8.142;2023-04-12T12:15:36;1.47;;;1.00;;
18100;SDS011;9177;49.156;8.142;2023-04-12T12:18:05;1.00;;;0.90;;
18100;SDS011;9177;49.156;8.142;2023-04-12T12:20:38;1.03;;;0.83;;
18100;SDS011;9177;49.156;8.142;2023-04-12T12:23:06;1.23;;;0.80;;
18100;SDS011;9177;49.156;8.142;2023-04-12T12:25:34;1.87;;;0.80;;
18100;SDS011;9177;49.156;8.142;2023-04-12T12:28:01;1.23;;;0.83;;
18100;SDS011;9177;49.156;8.142;2023-04-12T12:30:29;2.77;;;1.00;;
18100;SDS011;9177;49.156;8.142;2023-04-12T12:32:57;3.33;;;1.00;;
18100;SDS011;9177;49.156;8.142;2023-04-12T12:35:27;1.10;;;0.93;;
18100;SDS011;9177;49.156;8.142;2023-04-12T12:37:54;2.30;;;0.97;;
18100;SDS011;9177;49.156;8.142;2023-04-12T12:40:29;1.67;;;1.00;;
18100;SDS011;9177;49.156;8.142;2023-04-12T12:42:58;3.87;;;1.20;;
18100;SDS011;9177;49.156;8.142;2023-04-12T12:45:26;1.50;;;1.10;;
18100;SDS011;9177;49.156;8.142;2023-04-12T12:47:54;3.30;;;1.00;;
18100;SDS011;9177;49.156;8.142;2023-04-12T12:50:24;1.20;;;0.87;;
18100;SDS011;9177;49.156;8.142;2023-04-12T12:52:52;1.23;;;0.80;;
18100;SDS011;9177;49.156;8.142;2023-04-12T12:55:20;1.57;;;0.83;;
18100;SDS011;9177;49.156;8.142;2023-04-12T12:57:48;1.10;;;0.90;;
18100;SDS011;9177;49.156;8.142;2023-04-12T13:00:21;1.90;;;1.27;;
18100;SDS011;9177;49.156;8.142;2023-04-12T13:02:49;1.90;;;1.10;;
18100;SDS011;9177;49.156;8.142;2023-04-12T13:05:17;1.13;;;1.03;;
18100;SDS011;9177;49.156;8.142;2023-04-12T13:07:45;1.97;;;1.00;;
18100;SDS011;9177;49.156;8.142;2023-04-12T13:10:12;1.23;;;0.90;;
18100;SDS011;9177;49.156;8.142;2023-04-12T13:12:39;1.50;;;0.97;;
18100;SDS011;9177;49.156;8.142;2023-04-12T13:15:06;1.53;;;0.93;;
18100;SDS011;9177;49.156;8.142;2023-04-12T13:17:35;2.20;;;1.00;;
18100;SDS011;9177;49.156;8.142;2023-04-12T13:20:02;1.37;;;1.00;;
18100;SDS011;9177;49.156;8.142;2023-04-12T13:22:32;0.97;;;0.80;;
18100;SDS011;9177;49.156;8.142;2023-04-12T13:24:59;1.13;;;0.70;;
18100;SDS011;9177;49.156;8.142;2023-04-12T13:27:26;1.30;;;0.80;;
18100;SDS011;9177;49.156;8.142;2023-04-12T13:29:53;2.90;;;0.90;;
18100;SDS011;9177;49.156;8.142;2023-04-12T13:32:20;1.10;;;1.00;;
18100;SDS011;9177;49.156;8.142;2023-04-12T13:34:48;1.20;;;0.90;;
18100;SDS011;9177;49.156;8.142;2023-04-12T13:37:15;1.37;;;0.80;;
18100;SDS011;9177;49.156;8.142;2023-04-12T13:39:42;1.43;;;1.00;;
18100;SDS011;9177;49.156;8.142;2023-04-12T13:42:09;1.17;;;0.70;;
18100;SDS011;9177;49.156;8.142;2023-04-12T13:44:36;1.67;;;0.97;;
18100;SDS011;9177;49.156;8.142;2023-04-12T13:47:03;1.13;;;0.87;;
18100;SDS011;9177;49.156;8.142;2023-04-12T13:49:30;1.00;;;0.70;;
18100;SDS011;9177;49.156;8.142;2023-04-12T13:51:58;1.50;;;0.77;;
18100;SDS011;9177;49.156;8.142;2023-04-12T13:54:26;1.63;;;1.00;;
18100;SDS011;9177;49.156;8.142;2023-04-12T13:56:54;1.73;;;0.87;;
18100;SDS011;9177;49.156;8.142;2023-04-12T13:59:22;0.90;;;0.80;;
18100;SDS011;9177;49.156;8.142;2023-04-12T14:01:49;0.80;;;0.77;;
18100;SDS011;9177;49.156;8.142;2023-04-12T14:04:16;2.47;;;0.80;;
18100;SDS011;9177;49.156;8.142;2023-04-12T14:06:43;1.87;;;0.80;;
18100;SDS011;9177;49.156;8.142;2023-04-12T14:09:14;2.20;;;0.80;;
18100;SDS011;9177;49.156;8.142;2023-04-12T14:11:49;1.60;;;1.00;;
18100;SDS011;9177;49.156;8.142;2023-04-12T14:14:19;1.10;;;0.80;;
18100;SDS011;9177;49.156;8.142;2023-04-12T14:16:46;0.70;;;0.70;;
18100;SDS011;9177;49.156;8.142;2023-04-12T14:19:13;0.93;;;0.70;;
18100;SDS011;9177;49.156;8.142;2023-04-12T14:21:40;1.17;;;0.70;;
18100;SDS011;9177;49.156;8.142;2023-04-12T14:24:07;1.23;;;0.90;;
18100;SDS011;9177;49.156;8.142;2023-04-12T14:26:36;0.87;;;0.70;;
18100;SDS011;9177;49.156;8.142;2023-04-12T14:29:04;2.10;;;0.80;;
18100;SDS011;9177;49.156;8.142;2023-04-12T14:31:31;1.47;;;0.83;;
18100;SDS011;9177;49.156;8.142;2023-04-12T14:34:00;1.27;;;0.97;;
18100;SDS011;9177;49.156;8.142;2023-04-12T14:36:27;0.90;;;0.70;;
18100;SDS011;9177;49.156;8.142;2023-04-12T14:38:55;1.93;;;0.90;;
18100;SDS011;9177;49.156;8.142;2023-04-12T14:41:22;1.23;;;0.77;;
18100;SDS011;9177;49.156;8.142;2023-04-12T14:43:50;1.00;;;0.67;;
18100;SDS011;9177;49.156;8.142;2023-04-12T14:46:17;1.53;;;0.80;;
18100;SDS011;9177;49.156;8.142;2023-04-12T14:48:44;1.43;;;0.90;;
18100;SDS011;9177;49.156;8.142;2023-04-12T14:51:11;1.03;;;0.90;;
18100;SDS011;9177;49.156;8.142;2023-04-12T14:53:38;1.10;;;0.87;;
18100;SDS011;9177;49.156;8.142;2023-04-12T14:56:15;1.63;;;0.97;;
18100;SDS011;9177;49.156;8.142;2023-04-12T14:58:42;1.07;;;0.83;;
18100;SDS011;9177;49.156;8.142;2023-04-12T15:01:10;1.03;;;0.70;;
18100;SDS011;9177;49.156;8.142;2023-04-12T15:03:38;0.63;;;0.60;;
18100;SDS011;9177;49.156;8.142;2023-04-12T15:06:08;1.43;;;0.60;;
18100;SDS011;9177;49.156;8.142;2023-04-12T15:08:35;1.03;;;0.67;;
18100;SDS011;9177;49.156;8.142;2023-04-12T15:11:06;1.03;;;0.80;;
18100;SDS011;9177;49.156;8.142;2023-04-12T15:13:36;1.03;;;0.60;;
18100;SDS011;9177;49.156;8.142;2023-04-12T15:16:05;0.70;;;0.60;;